Time;durP1;ratioP1;P1;durP2;ratioP2;P2;SDS_P1;SDS_P2;PMS_P1;PMS_P2;Temp;Humidity;BMP_temperature;BMP_pressure;BME280_temperature;BME280_humidity;BME280_pressure;Samples;Min_cycle;Max_cycle;Signal;HPM_P1;HPM_P2
2022/04/02 00:01:17;;;;;;;22.13;15.03;;;;;;;-0.32;100.00;151290.09;5046884;28;20797;-76
2022/04/02 00:03:53;;;;;;;20.20;14.90;;;;;;;-0.32;100.00;151288.84;5052114;28;20462;-76
2022/04/02 00:06:28;;;;;;;21.40;15.07;;;;;;;-0.33;100.00;151286.28;5049874;28;20454;-76
2022/04/02 00:09:04;;;;;;;21.30;16.10;;;;;;;-0.34;100.00;151284.97;5045306;28;20451;-76
2022/04/02 00:11:40;;;;;;;23.60;17.43;;;;;;;-0.30;100.00;151295.28;5035164;28;20542;-76
2022/04/02 00:14:15;;;;;;;21.77;15.90;;;;;;;-0.28;100.00;151300.41;5034957;28;20459;-76
2022/04/02 00:16:52;;;;;;;21.20;14.90;;;;;;;-0.26;100.00;151305.50;5049931;28;20575;-76
2022/04/02 00:19:29;;;;;;;21.30;16.70;;;;;;;-0.21;100.00;151318.34;5034038;28;20436;-76
2022/04/02 00:22:05;;;;;;;22.60;16.73;;;;;;;-0.25;100.00;151308.09;5019223;28;20447;-76
2022/04/02 00:24:40;;;;;;;23.23;17.00;;;;;;;-0.25;100.00;151308.09;5019390;28;20435;-76
2022/04/02 00:27:16;;;;;;;24.93;17.77;;;;;;;-0.22;100.00;151314.50;5036824;28;20454;-76
2022/04/02 00:29:52;;;;;;;24.20;16.70;;;;;;;-0.20;100.00;151320.91;5046389;28;20450;-76
2022/04/02 00:32:29;;;;;;;23.73;17.37;;;;;;;-0.17;100.00;151328.63;5025223;28;20446;-76
2022/04/02 00:35:05;;;;;;;19.87;15.10;;;;;;;-0.22;100.00;151315.81;5037500;28;20463;-76
2022/04/02 00:37:41;;;;;;;22.83;15.93;;;;;;;-0.18;100.00;151324.75;5067695;28;20554;-76
2022/04/02 00:40:16;;;;;;;23.60;16.67;;;;;;;-0.21;100.00;151318.34;5025363;28;20438;-76
2022/04/02 00:42:52;;;;;;;22.40;16.13;;;;;;;-0.20;100.00;151320.91;5054471;28;20533;-76
2022/04/02 00:45:28;;;;;;;24.73;17.93;;;;;;;-0.17;100.00;151327.34;5051126;28;20439;-75
2022/04/02 00:48:05;;;;;;;23.30;17.27;;;;;;;-0.22;100.00;151314.50;5051260;28;20449;-76
2022/04/02 00:50:41;;;;;;;21.37;16.10;;;;;;;-0.23;100.00;151313.22;5024758;28;20466;-76
2022/04/02 00:53:17;;;;;;;27.87;18.93;;;;;;;-0.22;100.00;151315.81;5050067;28;20451;-76
2022/04/02 00:55:53;;;;;;;23.53;18.00;;;;;;;-0.19;100.00;151323.50;5018825;28;20507;-76
2022/04/02 00:58:29;;;;;;;26.37;18.23;;;;;;;-0.23;100.00;151313.22;5018477;28;20447;-76
2022/04/02 01:01:07;;;;;;;25.07;19.00;;;;;;;-0.24;100.00;151310.63;5025554;28;20770;-76
2022/04/02 01:03:48;;;;;;;26.50;18.33;;;;;;;-0.18;100.00;151326.03;5033062;28;20534;-76
2022/04/02 01:06:24;;;;;;;26.53;18.73;;;;;;;-0.15;100.00;151333.75;5038716;28;20549;-76
2022/04/02 01:09:02;;;;;;;23.47;17.77;;;;;;;-0.12;100.00;151341.44;5047932;28;20455;-76
2022/04/02 01:11:42;;;;;;;24.90;18.50;;;;;;;-0.13;100.00;151337.56;5032674;28;20474;-76
2022/04/02 01:14:18;;;;;;;23.63;17.07;;;;;;;-0.17;100.00;151328.63;5021260;28;20487;-76
2022/04/02 01:16:56;;;;;;;24.50;16.50;;;;;;;-0.15;100.00;151333.75;5036297;28;20537;-76
2022/04/02 01:19:36;;;;;;;27.47;17.30;;;;;;;-0.13;100.00;151337.56;5025679;28;20456;-76
2022/04/02 01:22:22;;;;;;;23.00;16.47;;;;;;;-0.14;100.00;151336.34;5012442;28;20447;-76
2022/04/02 01:25:01;;;;;;;27.50;17.37;;;;;;;-0.16;100.00;151331.16;5002055;28;20526;-76
2022/04/02 01:27:43;;;;;;;25.40;18.20;;;;;;;-0.19;100.00;151322.22;5040685;28;20462;-76
2022/04/02 01:30:19;;;;;;;30.47;19.70;;;;;;;-0.20;100.00;151320.91;5040789;28;20437;-76
2022/04/02 01:32:55;;;;;;;25.13;18.13;;;;;;;-0.17;100.00;151328.63;5056786;28;20431;-76
2022/04/02 01:35:31;;;;;;;23.30;16.67;;;;;;;-0.17;100.00;151327.34;5022349;28;20470;-76
2022/04/02 01:38:30;;;;;;;26.20;18.13;;;;;;;-0.18;100.00;151326.03;5021315;28;20435;-76
2022/04/02 01:41:08;;;;;;;25.23;17.10;;;;;;;-0.19;100.00;151322.22;5023575;28;20462;-76
2022/04/02 01:43:48;;;;;;;27.03;17.80;;;;;;;-0.15;100.00;151333.75;5039354;28;20488;-76
2022/04/02 01:46:24;;;;;;;25.10;15.83;;;;;;;-0.18;100.00;151326.03;5040945;28;20520;-76
2022/04/02 01:49:02;;;;;;;23.93;18.10;;;;;;;-0.18;100.00;151324.75;5021107;28;20948;-76
2022/04/02 01:51:37;;;;;;;25.50;15.93;;;;;;;-0.12;100.00;151341.44;5037647;28;20832;-76
2022/04/02 01:54:19;;;;;;;25.83;18.70;;;;;;;-0.21;100.00;151318.34;5056257;28;20513;-76
2022/04/02 01:56:56;;;;;;;23.63;17.13;;;;;;;-0.18;100.00;151324.75;5053029;28;20552;-76
2022/04/02 01:59:32;;;;;;;26.47;18.50;;;;;;;-0.15;100.00;151333.75;5031667;28;20442;-76
2022/04/02 02:02:08;;;;;;;25.20;16.83;;;;;;;-0.14;100.00;151336.34;5039674;28;20855;-76
2022/04/02 02:04:43;;;;;;;27.30;18.90;;;;;;;-0.18;100.00;151324.75;5031594;28;20442;-75
2022/04/02 02:07:19;;;;;;;21.73;17.20;;;;;;;-0.20;100.00;151320.91;5040254;28;20446;-76
2022/04/02 02:10:00;;;;;;;22.67;16.43;;;;;;;-0.22;100.00;151315.81;5033605;28;20434;-76
2022/04/02 02:13:04;;;;;;;24.13;17.77;;;;;;;-0.21;100.00;151317.03;5023411;28;20419;-76
2022/04/02 02:15:45;;;;;;;23.50;16.57;;;;;;;-0.23;100.00;151313.22;5003045;28;20973;-76
2022/04/02 02:18:21;;;;;;;23.47;17.10;;;;;;;-0.23;100.00;151313.22;5034312;28;20793;-76
2022/04/02 02:20:56;;;;;;;26.57;17.03;;;;;;;-0.27;100.00;151302.97;5034131;28;20474;-75
2022/04/02 02:23:32;;;;;;;23.07;15.40;;;;;;;-0.22;100.00;151315.81;5028385;28;20783;-76
2022/04/02 02:26:09;;;;;;;22.07;16.23;;;;;;;-0.24;100.00;151310.63;5015841;28;20793;-76
2022/04/02 02:28:45;;;;;;;23.33;16.13;;;;;;;-0.25;100.00;151308.09;5009225;28;20444;-76
2022/04/02 02:31:30;;;;;;;25.90;17.10;;;;;;;-0.24;100.00;151310.63;5006598;28;20446;-76
2022/04/02 02:37:05;;;;;;;20.90;15.70;;;;;;;-0.23;100.00;151313.22;5015117;28;20448;-76
2022/04/02 02:39:44;;;;;;;23.23;16.07;;;;;;;-0.21;100.00;151318.34;5005127;28;20455;-76
2022/04/02 02:42:27;;;;;;;24.00;15.93;;;;;;;-0.26;100.00;151305.50;5019828;28;20451;-76
2022/04/02 02:45:15;;;;;;;21.00;15.30;;;;;;;-0.31;100.00;151292.69;5016999;28;20466;-76
2022/04/02 02:47:50;;;;;;;24.47;15.70;;;;;;;-0.25;100.00;151308.09;5036056;28;20447;-76
2022/04/02 02:50:33;;;;;;;22.80;16.27;;;;;;;-0.25;100.00;151308.09;5019423;28;20454;-76
2022/04/02 02:53:09;;;;;;;19.27;14.90;;;;;;;-0.26;100.00;151304.22;5023516;28;20432;-76
2022/04/02 02:55:45;;;;;;;20.50;15.63;;;;;;;-0.28;100.00;151300.41;4999551;28;20468;-76
2022/04/02 02:58:22;;;;;;;23.53;16.30;;;;;;;-0.30;100.00;151295.28;5019005;28;20537;-76
2022/04/02 03:00:58;;;;;;;24.53;15.97;;;;;;;-0.31;100.00;151292.69;5041085;28;20449;-76
2022/04/02 03:03:37;;;;;;;19.17;14.27;;;;;;;-0.32;100.00;151290.09;5019219;28;20436;-76
2022/04/02 03:06:14;;;;;;;19.00;14.20;;;;;;;-0.33;100.00;151287.56;5011693;28;20458;-76
2022/04/02 03:08:53;;;;;;;19.50;14.60;;;;;;;-0.32;100.00;151290.09;5015985;28;20451;-76
2022/04/02 03:11:29;;;;;;;21.07;15.17;;;;;;;-0.31;100.00;151292.69;5021167;28;20473;-76
2022/04/02 03:14:07;;;;;;;21.90;14.83;;;;;;;-0.35;100.00;151282.44;5051643;28;20429;-76
2022/04/02 03:16:42;;;;;;;19.87;14.63;;;;;;;-0.36;100.00;151279.88;5040201;28;20810;-76
2022/04/02 03:19:24;;;;;;;20.67;14.90;;;;;;;-0.40;100.00;151269.63;5032802;28;20419;-75
2022/04/02 03:22:02;;;;;;;20.40;12.77;;;;;;;-0.40;100.00;151269.63;5031986;28;20458;-76
2022/04/02 03:24:37;;;;;;;19.10;14.70;;;;;;;-0.41;100.00;151265.75;5032448;28;20459;-76
2022/04/02 03:27:16;;;;;;;24.77;15.80;;;;;;;-0.44;100.00;151259.34;5015639;28;20459;-75
2022/04/02 03:29:58;;;;;;;20.37;15.53;;;;;;;-0.50;100.00;151242.69;5031025;28;20483;-75
2022/04/02 03:32:34;;;;;;;20.60;14.43;;;;;;;-0.56;100.00;151228.59;5016188;28;20448;-75
2022/04/02 03:35:14;;;;;;;19.20;13.80;;;;;;;-0.64;100.00;151208.06;5022857;28;20568;-75
2022/04/02 03:37:51;;;;;;;19.23;14.00;;;;;;;-0.68;100.00;151197.78;5034515;28;20839;-75
2022/04/02 03:40:27;;;;;;;23.60;13.53;;;;;;;-0.67;100.00;151200.34;5020109;28;20447;-75
2022/04/02 03:43:04;;;;;;;17.27;13.63;;;;;;;-0.69;100.00;151196.47;5036714;28;20503;-76
2022/04/02 03:45:46;;;;;;;17.43;14.40;;;;;;;-0.69;100.00;151196.47;5025004;28;20863;-75
2022/04/02 03:48:21;;;;;;;21.00;13.73;;;;;;;-0.70;100.00;151192.66;5038761;28;20513;-75
2022/04/02 03:50:58;;;;;;;18.13;13.20;;;;;;;-0.77;100.00;151174.72;5039281;28;20485;-75
2022/04/02 03:53:34;;;;;;;20.30;13.90;;;;;;;-0.78;100.00;151172.13;5037900;28;20622;-75
2022/04/02 03:56:12;;;;;;;22.53;14.53;;;;;;;-0.79;100.00;151169.56;5036407;28;20479;-75
2022/04/02 03:58:54;;;;;;;19.23;13.10;;;;;;;-0.77;100.00;151174.72;5029706;28;20480;-75
2022/04/02 04:01:31;;;;;;;17.43;12.93;;;;;;;-0.71;100.00;151190.06;5052563;28;20453;-75
2022/04/02 04:04:07;;;;;;;19.33;13.10;;;;;;;-0.76;100.00;151177.25;5022391;28;20446;-74
2022/04/02 04:06:42;;;;;;;16.50;12.67;;;;;;;-0.78;100.00;151172.13;5019276;28;20450;-75
2022/04/02 04:09:18;;;;;;;16.67;12.00;;;;;;;-0.80;100.00;151167.00;5022502;28;20465;-77
2022/04/02 04:11:57;;;;;;;15.90;11.90;;;;;;;-0.80;100.00;151167.00;5019062;28;20495;-76
2022/04/02 04:14:36;;;;;;;18.73;13.23;;;;;;;-0.77;100.00;151174.72;5051510;28;20445;-75
2022/04/02 04:17:14;;;;;;;17.77;12.93;;;;;;;-0.79;100.00;151169.56;5034888;28;20801;-75
2022/04/02 04:19:51;;;;;;;16.00;12.60;;;;;;;-0.80;100.00;151168.31;5019289;28;20451;-75
2022/04/02 04:22:27;;;;;;;18.90;11.90;;;;;;;-0.81;100.00;151165.72;5046274;28;20457;-75
2022/04/02 04:25:04;;;;;;;18.30;12.50;;;;;;;-0.87;100.00;151149.03;5019459;28;20433;-75
2022/04/02 04:27:41;;;;;;;17.30;12.33;;;;;;;-0.88;100.00;151147.78;5019390;28;20898;-76
2022/04/02 04:30:17;;;;;;;17.83;11.97;;;;;;;-0.87;100.00;151149.03;5024679;28;20505;-76
2022/04/02 04:32:57;;;;;;;18.43;13.60;;;;;;;-0.93;100.00;151134.97;5039910;28;20445;-76
2022/04/02 04:35:33;;;;;;;17.60;12.97;;;;;;;-0.96;100.00;151127.28;5034458;28;20975;-76
2022/04/02 04:38:09;;;;;;;19.63;13.47;;;;;;;-0.91;100.00;151138.78;5019282;28;20797;-76
2022/04/02 04:40:45;;;;;;;17.73;11.40;;;;;;;-0.99;100.00;151118.28;5020394;28;20876;-76
2022/04/02 04:43:21;;;;;;;18.40;12.60;;;;;;;-0.95;100.00;151128.50;5035475;28;20450;-76
2022/04/02 04:45:58;;;;;;;17.47;13.53;;;;;;;-0.96;100.00;151125.97;5035330;28;20473;-76
2022/04/02 04:48:35;;;;;;;19.13;12.37;;;;;;;-0.97;100.00;151123.41;5035094;28;20462;-76
2022/04/02 04:51:12;;;;;;;26.20;13.67;;;;;;;-0.95;100.00;151128.50;5034230;28;20469;-76
2022/04/02 04:53:48;;;;;;;17.73;14.40;;;;;;;-0.94;100.00;151131.09;5038869;28;20525;-76
2022/04/02 04:56:24;;;;;;;19.23;11.43;;;;;;;-0.93;100.00;151133.69;5053950;28;20504;-76
2022/04/02 04:58:59;;;;;;;16.70;12.50;;;;;;;-0.90;100.00;151141.38;5035321;28;20466;-76
2022/04/02 05:01:38;;;;;;;21.17;12.43;;;;;;;-0.87;100.00;151149.03;5034708;28;20451;-76
2022/04/02 05:04:16;;;;;;;16.97;12.33;;;;;;;-0.85;100.00;151154.19;5034420;28;20447;-77
2022/04/02 05:06:57;;;;;;;17.47;12.37;;;;;;;-0.83;100.00;151160.59;5026752;28;20447;-77
2022/04/02 05:09:33;;;;;;;19.20;13.30;;;;;;;-0.83;100.00;151159.31;5017971;28;20464;-77
2022/04/02 05:12:13;;;;;;;19.70;13.87;;;;;;;-0.80;100.00;151168.31;5018743;28;20478;-76
2022/04/02 05:14:54;;;;;;;14.63;11.20;;;;;;;-0.79;100.00;151169.56;5026520;28;20447;-76
2022/04/02 05:17:33;;;;;;;20.30;14.60;;;;;;;-0.87;100.00;151149.03;5023664;28;20450;-77
2022/04/02 05:20:11;;;;;;;22.57;14.67;;;;;;;-0.86;100.00;151151.63;5036947;28;20477;-76
2022/04/02 05:22:48;;;;;;;19.43;13.43;;;;;;;-0.88;100.00;151146.50;5034267;28;20448;-76
2022/04/02 05:25:24;;;;;;;19.77;13.77;;;;;;;-0.89;100.00;151143.91;5017821;28;20918;-76
2022/04/02 05:28:00;;;;;;;22.60;13.93;;;;;;;-0.86;100.00;151151.63;5029538;28;20451;-76
2022/04/02 05:30:37;;;;;;;17.33;12.87;;;;;;;-0.89;100.00;151143.91;5033407;28;20451;-76
2022/04/02 05:33:13;;;;;;;21.27;15.57;;;;;;;-0.86;100.00;151151.63;5033063;28;20440;-76
2022/04/02 05:35:50;;;;;;;19.73;14.10;;;;;;;-0.86;100.00;151152.91;5022695;28;20485;-76
2022/04/02 05:38:27;;;;;;;25.10;16.17;;;;;;;-0.92;100.00;151136.22;5045756;28;20466;-76
2022/04/02 05:41:02;;;;;;;20.90;14.13;;;;;;;-0.87;100.00;151149.03;5033653;28;20455;-76
2022/04/02 05:43:38;;;;;;;19.70;13.07;;;;;;;-0.89;100.00;151143.91;5032694;28;20518;-76
2022/04/02 05:46:15;;;;;;;21.43;13.07;;;;;;;-0.89;100.00;151145.22;5017381;28;20545;-76
2022/04/02 05:48:50;;;;;;;16.13;11.90;;;;;;;-0.87;100.00;151150.31;5037647;28;20446;-76
2022/04/02 05:51:27;;;;;;;16.67;12.37;;;;;;;-0.89;100.00;151145.22;5034534;28;20440;-76
2022/04/02 05:54:03;;;;;;;19.73;13.80;;;;;;;-0.87;100.00;151149.03;5032555;28;20447;-76
2022/04/02 05:56:39;;;;;;;20.30;13.80;;;;;;;-0.83;100.00;151159.31;5044875;28;20564;-76
2022/04/02 05:59:14;;;;;;;18.07;13.70;;;;;;;-0.80;100.00;151167.00;5039890;28;20486;-76
2022/04/02 06:01:50;;;;;;;18.27;12.70;;;;;;;-0.81;100.00;151165.72;5034270;28;20444;-76
2022/04/02 06:04:28;;;;;;;21.27;15.10;;;;;;;-0.82;100.00;151161.91;5052558;28;20479;-76
2022/04/02 06:07:05;;;;;;;18.00;13.27;;;;;;;-0.84;100.00;151156.72;5041209;28;20530;-76
2022/04/02 06:09:43;;;;;;;18.20;13.50;;;;;;;-0.82;100.00;151163.16;5044571;28;20459;-76
2022/04/02 06:12:18;;;;;;;19.87;13.37;;;;;;;-0.78;100.00;151172.13;5017189;28;20473;-76
2022/04/02 06:14:54;;;;;;;19.23;12.53;;;;;;;-0.83;100.00;151160.59;5035752;28;20453;-76
2022/04/02 06:17:29;;;;;;;16.00;12.47;;;;;;;-0.84;100.00;151156.72;5034739;28;20879;-76
2022/04/02 06:20:07;;;;;;;17.57;12.67;;;;;;;-0.81;100.00;151164.44;5026834;28;20442;-77
2022/04/02 06:22:44;;;;;;;16.90;12.50;;;;;;;-0.80;100.00;151168.31;5033779;28;20937;-76
2022/04/02 06:25:20;;;;;;;16.80;12.03;;;;;;;-0.81;100.00;151164.44;5047496;28;20457;-76
2022/04/02 06:27:55;;;;;;;17.17;12.83;;;;;;;-0.77;100.00;151175.97;5018522;28;20450;-76
2022/04/02 06:30:31;;;;;;;16.53;12.30;;;;;;;-0.77;100.00;151174.72;5028168;28;20431;-76
2022/04/02 06:33:07;;;;;;;15.63;11.47;;;;;;;-0.78;100.00;151173.44;5057329;28;20422;-76
2022/04/02 06:35:42;;;;;;;16.33;11.70;;;;;;;-0.81;100.00;151165.72;5023439;28;20445;-75
2022/04/02 06:38:19;;;;;;;19.10;13.17;;;;;;;-0.89;100.00;151145.22;5000095;28;20451;-76
2022/04/02 06:40:55;;;;;;;15.93;11.90;;;;;;;-0.82;100.00;151161.91;5027979;28;20451;-76
2022/04/02 06:43:30;;;;;;;18.30;12.40;;;;;;;-0.88;100.00;151147.78;5050013;28;20530;-76
2022/04/02 06:46:09;;;;;;;19.33;12.63;;;;;;;-0.85;100.00;151155.44;5025641;28;20898;-76
2022/04/02 06:48:45;;;;;;;17.30;13.00;;;;;;;-0.83;100.00;151159.31;5006935;28;20447;-76
2022/04/02 06:51:20;;;;;;;16.67;12.17;;;;;;;-0.85;100.00;151155.44;5040168;28;20864;-76
2022/04/02 06:53:57;;;;;;;19.50;13.73;;;;;;;-0.82;100.00;151161.91;5029847;28;20441;-76
2022/04/02 06:56:33;;;;;;;15.70;11.93;;;;;;;-0.83;100.00;151159.31;5034196;28;20970;-76
2022/04/02 06:59:09;;;;;;;15.17;12.00;;;;;;;-0.76;100.00;151177.25;5019041;28;20454;-77
2022/04/02 07:01:44;;;;;;;17.00;12.03;;;;;;;-0.81;100.00;151164.44;5052620;28;20441;-76
2022/04/02 07:04:20;;;;;;;16.50;11.87;;;;;;;-0.79;100.00;151169.56;5037289;28;20463;-76
2022/04/02 07:06:55;;;;;;;16.90;12.47;;;;;;;-0.78;100.00;151172.13;5031889;28;20449;-77
2022/04/02 07:09:32;;;;;;;15.07;11.40;;;;;;;-0.80;100.00;151168.31;5046029;28;20787;-77
2022/04/02 07:12:09;;;;;;;15.73;11.87;;;;;;;-0.78;100.00;151172.13;5031273;28;20511;-76
2022/04/02 07:14:44;;;;;;;16.03;12.00;;;;;;;-0.89;100.00;151143.91;5020994;28;20489;-76
2022/04/02 07:17:20;;;;;;;17.90;11.97;;;;;;;-0.83;100.00;151160.59;5041202;28;20484;-76
2022/04/02 07:20:06;;;;;;;15.37;11.97;;;;;;;-0.87;100.00;151150.31;5048591;28;20434;-76
2022/04/02 07:22:41;;;;;;;19.17;12.03;;;;;;;-0.85;100.00;151154.19;5046759;28;20470;-76
2022/04/02 07:25:19;;;;;;;15.47;11.17;;;;;;;-0.82;100.00;151161.91;5047612;28;20458;-76
2022/04/02 07:27:55;;;;;;;19.17;10.57;;;;;;;-0.88;100.00;151146.50;5033910;28;20427;-76
2022/04/02 07:30:32;;;;;;;19.17;13.73;;;;;;;-0.87;100.00;151149.03;5049706;28;20827;-76
2022/04/02 07:33:08;;;;;;;15.73;11.33;;;;;;;-0.89;100.00;151143.91;5031839;28;20474;-76
2022/04/02 07:35:49;;;;;;;17.60;12.37;;;;;;;-0.85;100.00;151155.44;5031450;28;20541;-76
2022/04/02 07:38:29;;;;;;;15.70;12.33;;;;;;;-0.85;100.00;151154.19;5045476;28;20447;-76
2022/04/02 07:41:14;;;;;;;21.73;13.20;;;;;;;-0.84;100.00;151156.72;5031487;28;20442;-77
2022/04/02 07:43:52;;;;;;;15.60;11.37;;;;;;;-0.82;100.00;151163.16;5031041;28;20443;-76
2022/04/02 07:46:29;;;;;;;17.57;12.40;;;;;;;-0.77;100.00;151174.72;5029460;28;20451;-77
2022/04/02 07:49:05;;;;;;;18.67;12.67;;;;;;;-0.74;100.00;151182.38;5032186;28;20411;-77
2022/04/02 07:51:47;;;;;;;18.53;13.10;;;;;;;-0.80;100.00;151167.00;5015792;28;20454;-77
2022/04/02 07:54:24;;;;;;;17.87;14.20;;;;;;;-0.81;100.00;151165.72;5031086;28;20522;-77
2022/04/02 07:57:04;;;;;;;18.57;13.93;;;;;;;-0.81;100.00;151165.72;5031756;28;20891;-77
2022/04/02 07:59:50;;;;;;;19.67;14.33;;;;;;;-0.82;100.00;151161.91;5035559;28;20971;-77
2022/04/02 08:02:42;;;;;;;16.57;10.90;;;;;;;-0.80;100.00;151168.31;5037287;28;20867;-77
2022/04/02 08:05:19;;;;;;;19.13;13.00;;;;;;;-0.85;100.00;151155.44;5034555;28;20458;-77
2022/04/02 08:07:57;;;;;;;17.57;12.30;;;;;;;-0.82;100.00;151161.91;5030771;28;20459;-78
2022/04/02 08:10:45;;;;;;;16.00;10.73;;;;;;;-0.94;100.00;151132.38;5031284;28;20464;-77
2022/04/02 08:13:23;;;;;;;17.07;12.80;;;;;;;-0.84;100.00;151158.03;5026641;28;20456;-78
2022/04/02 08:16:04;;;;;;;17.57;13.20;;;;;;;-0.84;100.00;151158.03;5033247;28;20548;-78
2022/04/02 08:18:42;;;;;;;14.70;11.63;;;;;;;-0.83;100.00;151159.31;5038860;28;20528;-77
2022/04/02 08:21:25;;;;;;;20.27;13.83;;;;;;;-0.87;100.00;151149.03;5038978;28;20555;-78
2022/04/02 08:24:01;;;;;;;20.10;13.80;;;;;;;-0.88;100.00;151147.78;5046332;28;20457;-78
2022/04/02 08:26:56;;;;;;;19.73;13.13;;;;;;;-0.88;100.00;151147.78;5021838;28;20477;-77
2022/04/02 08:29:46;;;;;;;17.87;12.40;;;;;;;-0.84;100.00;151156.72;5063874;28;20441;-78
2022/04/02 08:32:28;;;;;;;15.47;11.40;;;;;;;-0.81;100.00;151164.44;5037052;28;20454;-78
2022/04/02 08:35:08;;;;;;;18.07;12.10;;;;;;;-0.87;100.00;151149.03;5029421;28;20457;-78
2022/04/02 08:37:56;;;;;;;16.97;12.20;;;;;;;-0.95;100.00;151129.81;5041708;28;20470;-78
2022/04/02 08:40:50;;;;;;;16.20;12.47;;;;;;;-0.89;100.00;151143.91;5037563;28;20427;-78
2022/04/02 08:43:50;;;;;;;16.63;12.70;;;;;;;-0.96;100.00;151125.97;5037435;28;20446;-78
2022/04/02 08:46:35;;;;;;;18.00;12.97;;;;;;;-0.99;100.00;151119.56;5022799;28;20540;-78
2022/04/02 08:49:22;;;;;;;18.77;11.93;;;;;;;-0.92;100.00;151136.22;5020353;28;20960;-79
2022/04/02 08:52:13;;;;;;;19.27;13.67;;;;;;;-0.99;100.00;151118.28;5053800;28;20457;-79
2022/04/02 08:55:04;;;;;;;19.13;13.00;;;;;;;-1.02;100.00;151110.59;5021516;28;20472;-79
2022/04/02 08:57:55;;;;;;;21.37;13.03;;;;;;;-0.94;100.00;151132.38;5021214;28;20469;-79
2022/04/02 09:00:36;;;;;;;18.20;14.10;;;;;;;-0.97;100.00;151123.41;5035511;28;20437;-80
2022/04/02 09:03:57;;;;;;;21.60;14.53;;;;;;;-1.02;100.00;151111.88;5029829;28;20449;-80
2022/04/02 09:07:30;;;;;;;18.80;13.90;;;;;;;-0.98;100.00;151120.88;5003849;28;20450;-79
2022/04/02 09:10:40;;;;;;;21.07;14.40;;;;;;;-0.91;100.00;151140.09;5039878;28;20493;-79
2022/04/02 09:13:50;;;;;;;19.40;13.40;;;;;;;-0.91;100.00;151138.78;5048147;28;20441;-80
2022/04/02 09:16:27;;;;;;;18.73;13.77;;;;;;;-1.01;100.00;151114.47;5055563;28;20459;-80
2022/04/02 09:19:13;;;;;;;24.63;14.47;;;;;;;-1.02;100.00;151111.88;5064412;28;20529;-80
2022/04/02 09:22:14;;;;;;;22.03;15.20;;;;;;;-1.02;100.00;151111.88;5021359;28;20456;-80
2022/04/02 09:25:25;;;;;;;23.50;15.80;;;;;;;-1.01;100.00;151113.16;5055395;28;20441;-79
2022/04/02 09:28:12;;;;;;;22.67;15.40;;;;;;;-0.96;100.00;151125.97;5023380;28;20476;-80
2022/04/02 09:31:21;;;;;;;21.73;13.90;;;;;;;-1.03;100.00;151109.28;5056483;28;20939;-80
2022/04/02 09:34:30;;;;;;;20.73;15.83;;;;;;;-1.04;100.00;151105.47;5037404;28;20475;-80
2022/04/02 09:37:09;;;;;;;23.30;15.47;;;;;;;-1.01;100.00;151114.47;5065196;28;20475;-80
2022/04/02 09:39:54;;;;;;;29.50;15.23;;;;;;;-0.91;100.00;151138.78;5055455;28;20436;-80
2022/04/02 09:42:41;;;;;;;24.63;16.30;;;;;;;-1.03;100.00;151109.28;5056400;28;20449;-79
2022/04/02 09:45:18;;;;;;;24.17;17.60;;;;;;;-1.06;100.00;151101.59;5038972;28;20448;-80
2022/04/02 09:48:10;;;;;;;20.40;15.63;;;;;;;-1.12;100.00;151084.97;5027337;28;20449;-79
2022/04/02 09:50:46;;;;;;;22.93;15.37;;;;;;;-1.04;100.00;151106.75;5036462;28;20436;-79
2022/04/02 09:53:25;;;;;;;21.40;15.33;;;;;;;-1.13;100.00;151082.38;5034499;28;20446;-79
2022/04/02 09:56:11;;;;;;;22.60;15.40;;;;;;;-1.06;100.00;151101.59;5060343;28;20438;-79
2022/04/02 09:59:11;;;;;;;23.70;15.27;;;;;;;-0.96;100.00;151127.28;5020035;28;20474;-79
2022/04/02 10:01:52;;;;;;;23.80;16.13;;;;;;;-0.89;100.00;151143.91;5048969;28;20451;-79
2022/04/02 10:04:38;;;;;;;28.37;18.60;;;;;;;-0.98;100.00;151120.88;5046795;28;21067;-79
2022/04/02 10:07:21;;;;;;;22.83;15.07;;;;;;;-1.01;100.00;151114.47;5037379;28;20453;-79
2022/04/02 10:09:59;;;;;;;27.30;17.50;;;;;;;-1.09;100.00;151092.66;5057454;28;20520;-79
2022/04/02 10:12:47;;;;;;;18.47;13.93;;;;;;;-1.00;100.00;151115.69;5064217;28;20473;-79
2022/04/02 10:15:37;;;;;;;21.37;15.10;;;;;;;-1.00;100.00;151117.00;5080192;28;20451;-79
2022/04/02 10:18:27;;;;;;;27.80;16.37;;;;;;;-1.05;100.00;151102.88;5058317;28;20553;-79
2022/04/02 10:21:07;;;;;;;23.00;15.23;;;;;;;-1.00;100.00;151117.00;5077012;28;20452;-79
2022/04/02 10:23:52;;;;;;;22.90;16.60;;;;;;;-1.01;100.00;151113.16;5070252;28;20472;-79
2022/04/02 10:26:28;;;;;;;24.90;17.20;;;;;;;-1.03;100.00;151108.06;5064546;28;20459;-78
2022/04/02 10:29:11;;;;;;;21.17;14.83;;;;;;;-1.12;100.00;151084.97;5032451;28;20469;-78
2022/04/02 10:31:51;;;;;;;27.63;17.33;;;;;;;-1.10;100.00;151090.06;5046197;28;20877;-78
2022/04/02 10:34:38;;;;;;;24.03;15.80;;;;;;;-1.06;100.00;151101.59;5045971;28;20848;-78
2022/04/02 10:37:16;;;;;;;22.13;15.73;;;;;;;-1.08;100.00;151096.47;5049483;28;20473;-78
2022/04/02 10:39:54;;;;;;;19.77;14.23;;;;;;;-1.03;100.00;151108.06;5063857;28;20448;-80
2022/04/02 10:42:34;;;;;;;21.90;14.80;;;;;;;-1.07;100.00;151099.06;5048418;28;20550;-80
2022/04/02 10:45:12;;;;;;;24.93;17.43;;;;;;;-0.99;100.00;151118.28;5034893;28;20539;-80
2022/04/02 10:47:50;;;;;;;22.83;15.40;;;;;;;-0.98;100.00;151122.09;5033404;28;20840;-80
2022/04/02 10:50:26;;;;;;;25.90;17.70;;;;;;;-1.06;100.00;151100.34;5046354;28;20445;-80
2022/04/02 10:53:04;;;;;;;24.27;16.00;;;;;;;-0.97;100.00;151123.41;5049285;28;20433;-80
2022/04/02 10:55:45;;;;;;;27.67;17.60;;;;;;;-1.05;100.00;151102.88;5037273;28;20912;-80
2022/04/02 10:58:22;;;;;;;25.77;17.87;;;;;;;-1.02;100.00;151110.59;5035223;28;20474;-80
2022/04/02 11:00:59;;;;;;;24.90;15.43;;;;;;;-0.96;100.00;151125.97;5039487;28;20482;-80
2022/04/02 11:03:39;;;;;;;22.90;15.17;;;;;;;-0.95;100.00;151128.50;5044374;28;20449;-80
2022/04/02 11:06:44;;;;;;;25.43;16.50;;;;;;;-0.95;100.00;151128.50;5034023;28;20446;-80
2022/04/02 11:09:34;;;;;;;20.10;14.87;;;;;;;-0.87;100.00;151149.03;5059953;28;20449;-80
2022/04/02 11:12:14;;;;;;;20.07;14.70;;;;;;;-0.85;100.00;151155.44;5038526;28;20487;-80
2022/04/02 11:14:50;;;;;;;23.03;16.30;;;;;;;-0.90;100.00;151142.63;5040624;28;20698;-80
2022/04/02 11:17:30;;;;;;;22.90;16.20;;;;;;;-0.89;100.00;151145.22;5037284;28;20480;-80
2022/04/02 11:20:09;;;;;;;19.57;14.40;;;;;;;-0.89;100.00;151143.91;5080561;28;20421;-80
2022/04/02 11:23:08;;;;;;;22.50;15.90;;;;;;;-0.89;100.00;151143.91;5063860;28;20792;-80
2022/04/02 11:25:48;;;;;;;21.53;15.67;;;;;;;-0.99;100.00;151118.28;5059289;28;20461;-80
2022/04/02 11:28:25;;;;;;;22.90;15.97;;;;;;;-1.02;100.00;151110.59;5031432;28;20915;-80
2022/04/02 11:31:04;;;;;;;22.60;16.17;;;;;;;-0.99;100.00;151119.56;5024262;28;20458;-79
2022/04/02 11:33:51;;;;;;;24.00;17.07;;;;;;;-0.99;100.00;151118.28;5049917;28;20791;-79
2022/04/02 11:36:41;;;;;;;23.67;17.80;;;;;;;-1.11;100.00;151088.78;5048610;28;20539;-80
2022/04/02 11:39:20;;;;;;;29.53;19.37;;;;;;;-1.02;100.00;151111.88;5050091;28;20827;-79
2022/04/02 11:41:58;;;;;;;30.77;21.53;;;;;;;-0.96;100.00;151125.97;5047270;28;20826;-79
2022/04/02 11:44:38;;;;;;;28.63;20.67;;;;;;;-0.78;100.00;151172.13;5047544;28;20532;-79
2022/04/02 11:47:16;;;;;;;30.23;20.90;;;;;;;-0.78;100.00;151172.13;5055491;28;20436;-79
2022/04/02 11:49:55;;;;;;;25.57;19.47;;;;;;;-0.73;100.00;151184.94;5038962;28;20441;-79
2022/04/02 11:52:49;;;;;;;31.67;18.17;;;;;;;-0.74;100.00;151182.38;5059373;28;20881;-80
2022/04/02 11:55:27;;;;;;;25.97;18.87;;;;;;;-0.81;100.00;151165.72;5059519;28;20800;-79
2022/04/02 11:58:05;;;;;;;25.53;17.10;;;;;;;-0.72;100.00;151187.53;5063151;28;20844;-78
2022/04/02 12:00:43;;;;;;;26.80;19.60;;;;;;;-0.78;100.00;151173.44;5055557;28;20806;-80
2022/04/02 12:03:23;;;;;;;25.40;19.77;;;;;;;-0.74;100.00;151182.38;5078251;28;20444;-80